Time;durP1;ratioP1;P1;durP2;ratioP2;P2;SDS_P1;SDS_P2;PMS_P1;PMS_P2;Temp;Humidity;BMP_temperature;BMP_pressure;BME280_temperature;BME280_humidity;BME280_pressure;Samples;Min_cycle;Max_cycle;Signal;HPM_P1;HPM_P2
2021/01/10 00:00:18;;;;;;;20.90;12.73;;;4.10;53.10;;;;;;5050190;28;20291;-40
2021/01/10 00:02:44;;;;;;;21.63;13.67;;;4.00;53.00;;;;;;5049599;28;20266;-40
2021/01/10 00:05:13;;;;;;;17.10;12.27;;;3.90;53.20;;;;;;5049706;28;20434;-40
2021/01/10 00:07:38;;;;;;;22.57;13.60;;;3.90;53.40;;;;;;5047658;28;20427;-40
2021/01/10 00:10:09;;;;;;;22.67;15.03;;;3.90;53.50;;;;;;5049587;28;20439;-40
2021/01/10 00:12:35;;;;;;;23.33;15.10;;;3.90;53.50;;;;;;5046454;28;20271;-40
2021/01/10 00:15:01;;;;;;;22.43;14.63;;;3.90;53.50;;;;;;5049104;28;20916;-40
2021/01/10 00:17:27;;;;;;;21.40;14.00;;;3.90;53.50;;;;;;5049150;28;20454;-40
2021/01/10 00:19:52;;;;;;;23.20;14.87;;;4.00;53.60;;;;;;5049239;28;20212;-40
2021/01/10 00:22:19;;;;;;;23.60;15.47;;;4.00;53.50;;;;;;5049660;28;20572;-40
2021/01/10 00:24:46;;;;;;;19.70;13.30;;;4.00;53.50;;;;;;5049725;28;20194;-40
2021/01/10 00:27:16;;;;;;;18.90;13.40;;;3.90;53.40;;;;;;5049362;28;20474;-40
2021/01/10 00:29:46;;;;;;;18.30;13.10;;;3.90;53.50;;;;;;5050131;28;20438;-40
2021/01/10 00:32:12;;;;;;;22.47;14.47;;;3.90;53.50;;;;;;5051818;28;20518;-40
2021/01/10 00:34:38;;;;;;;21.33;13.73;;;3.90;53.60;;;;;;5050173;28;20513;-40
2021/01/10 00:37:14;;;;;;;20.13;13.60;;;3.80;53.60;;;;;;5051693;28;20429;-40
2021/01/10 00:39:40;;;;;;;25.97;14.80;;;3.80;53.70;;;;;;5052687;28;20484;-40
2021/01/10 00:42:10;;;;;;;21.60;13.10;;;3.80;53.60;;;;;;5052762;28;20541;-40
2021/01/10 00:44:36;;;;;;;17.90;13.50;;;3.80;53.60;;;;;;5052702;28;20906;-40
2021/01/10 00:47:02;;;;;;;19.97;13.73;;;3.80;53.40;;;;;;5052918;28;20435;-40
2021/01/10 00:49:28;;;;;;;23.57;13.30;;;3.70;53.20;;;;;;5052255;28;20301;-40
2021/01/10 00:51:53;;;;;;;21.90;13.80;;;3.80;53.20;;;;;;5052855;28;20431;-40
2021/01/10 00:54:20;;;;;;;22.53;14.90;;;3.80;53.30;;;;;;5053185;28;20185;-40
2021/01/10 00:56:46;;;;;;;23.00;14.17;;;3.80;53.20;;;;;;5052424;28;20189;-40
2021/01/10 00:59:12;;;;;;;21.97;12.93;;;3.70;53.80;;;;;;5052228;28;21035;-40
2021/01/10 01:01:37;;;;;;;21.20;13.57;;;3.70;53.40;;;;;;5053131;28;20431;-41
2021/01/10 01:04:03;;;;;;;21.87;13.47;;;3.60;53.50;;;;;;5050584;28;20662;-40
2021/01/10 01:06:28;;;;;;;23.47;13.90;;;3.60;53.50;;;;;;5052991;28;20193;-41
2021/01/10 01:08:54;;;;;;;23.53;12.97;;;3.60;53.30;;;;;;5052242;28;20189;-40
2021/01/10 01:11:29;;;;;;;26.47;14.20;;;3.60;53.20;;;;;;5053131;28;20693;-40
2021/01/10 01:13:55;;;;;;;28.53;16.57;;;3.70;53.10;;;;;;5052179;28;20188;-40
2021/01/10 01:16:22;;;;;;;29.27;15.93;;;3.60;52.90;;;;;;5052594;28;20492;-40
2021/01/10 01:18:47;;;;;;;25.77;15.13;;;3.70;52.90;;;;;;5052458;28;20220;-40
2021/01/10 01:21:20;;;;;;;25.70;16.17;;;3.60;52.80;;;;;;5051976;28;20434;-40
2021/01/10 01:23:47;;;;;;;24.43;15.03;;;3.60;52.90;;;;;;5051073;28;20196;-40
2021/01/10 01:26:20;;;;;;;28.73;13.87;;;3.50;52.90;;;;;;5052577;28;20419;-40
2021/01/10 01:28:46;;;;;;;29.37;16.13;;;3.50;53.10;;;;;;5051175;28;20795;-41
2021/01/10 01:31:22;;;;;;;28.53;15.27;;;3.50;53.20;;;;;;5050603;28;20442;-41
2021/01/10 01:33:52;;;;;;;22.13;14.23;;;3.50;53.20;;;;;;5051646;28;20522;-41
2021/01/10 01:36:19;;;;;;;18.33;13.50;;;3.40;53.20;;;;;;5050956;28;20510;-41
2021/01/10 01:38:46;;;;;;;20.13;12.97;;;3.50;53.30;;;;;;5051449;28;20470;-40
2021/01/10 01:41:12;;;;;;;17.77;13.13;;;3.40;53.20;;;;;;5051787;28;20969;-40
2021/01/10 01:43:39;;;;;;;17.40;11.63;;;3.40;53.20;;;;;;5051972;28;20430;-41
2021/01/10 01:46:07;;;;;;;20.07;13.03;;;3.40;53.20;;;;;;5051895;28;20484;-41
2021/01/10 01:48:35;;;;;;;19.87;13.30;;;3.50;53.10;;;;;;5050737;28;20439;-40
2021/01/10 01:51:01;;;;;;;20.83;13.70;;;3.50;53.00;;;;;;5052190;28;20431;-40
2021/01/10 01:53:27;;;;;;;20.40;13.53;;;3.40;52.80;;;;;;5051224;28;20480;-41
2021/01/10 01:55:54;;;;;;;17.60;12.93;;;3.40;52.90;;;;;;5051795;28;20427;-41
2021/01/10 01:58:24;;;;;;;19.40;12.90;;;3.40;53.10;;;;;;5049853;28;20189;-40
2021/01/10 02:00:50;;;;;;;22.53;14.13;;;3.40;53.20;;;;;;5049940;28;20478;-41
2021/01/10 02:03:43;;;;;;;16.47;12.17;;;3.40;53.20;;;;;;5051455;28;20454;-40
2021/01/10 02:06:16;;;;;;;19.97;12.53;;;3.50;53.40;;;;;;5051344;28;20451;-41
2021/01/10 02:08:41;;;;;;;19.80;12.90;;;3.40;53.40;;;;;;5050977;28;20435;-41
2021/01/10 02:11:11;;;;;;;19.07;12.20;;;3.40;53.30;;;;;;5052306;28;20458;-41
2021/01/10 02:13:38;;;;;;;15.80;11.60;;;3.40;53.40;;;;;;5048706;28;20173;-40
2021/01/10 02:16:05;;;;;;;17.90;12.73;;;3.30;53.40;;;;;;5050980;28;20438;-41
2021/01/10 02:18:33;;;;;;;21.30;12.40;;;3.30;53.30;;;;;;5050788;28;20431;-40
2021/01/10 02:21:07;;;;;;;18.67;11.60;;;3.30;53.30;;;;;;5051398;28;20795;-40
2021/01/10 02:23:33;;;;;;;17.60;12.20;;;3.30;53.40;;;;;;5050629;28;20423;-41
2021/01/10 02:26:01;;;;;;;18.87;12.50;;;3.30;53.30;;;;;;5051160;28;20496;-40
2021/01/10 02:28:29;;;;;;;17.97;12.40;;;3.30;53.40;;;;;;5048339;28;20428;-40
2021/01/10 02:30:57;;;;;;;21.20;11.73;;;3.30;53.10;;;;;;5051506;28;20446;-41
2021/01/10 02:33:41;;;;;;;15.80;11.70;;;3.30;53.00;;;;;;5050255;28;20897;-40
2021/01/10 02:36:25;;;;;;;17.23;10.90;;;3.30;53.10;;;;;;5050896;28;20439;-41
2021/01/10 02:39:10;;;;;;;20.60;11.80;;;3.20;53.00;;;;;;5046629;28;20977;-40
2021/01/10 02:41:49;;;;;;;18.77;12.77;;;3.20;52.90;;;;;;5051294;28;20479;-40
2021/01/10 02:44:23;;;;;;;15.63;10.93;;;3.20;52.90;;;;;;5047087;28;20512;-40
2021/01/10 02:46:53;;;;;;;25.00;12.40;;;3.10;52.60;;;;;;5050854;28;20442;-40
2021/01/10 02:49:20;;;;;;;19.53;12.17;;;3.10;52.70;;;;;;5050270;28;20457;-40
2021/01/10 02:51:47;;;;;;;19.53;10.93;;;3.20;52.80;;;;;;5050950;28;20515;-41
2021/01/10 02:54:13;;;;;;;17.57;10.93;;;3.10;52.70;;;;;;5048765;28;20431;-40
2021/01/10 02:56:46;;;;;;;18.53;11.93;;;3.10;52.70;;;;;;5049898;28;20434;-41
2021/01/10 02:59:16;;;;;;;19.40;12.40;;;3.00;52.70;;;;;;5049391;28;20558;-40
2021/01/10 03:01:44;;;;;;;16.03;10.60;;;3.10;52.60;;;;;;5050851;28;20443;-40
2021/01/10 03:04:10;;;;;;;14.30;10.03;;;3.10;52.30;;;;;;5049957;28;20438;-40
2021/01/10 03:06:36;;;;;;;16.33;10.67;;;3.10;52.20;;;;;;5050724;28;20492;-40
2021/01/10 03:09:02;;;;;;;15.73;11.37;;;3.00;52.10;;;;;;5049609;28;20921;-40
2021/01/10 03:11:28;;;;;;;18.50;10.70;;;3.00;52.30;;;;;;5050864;28;20193;-40
2021/01/10 03:13:53;;;;;;;14.83;11.00;;;2.90;52.80;;;;;;5054104;28;20430;-40
2021/01/10 03:16:20;;;;;;;17.50;11.37;;;3.00;52.50;;;;;;5050021;28;20909;-40
2021/01/10 03:18:46;;;;;;;16.50;10.37;;;2.90;52.30;;;;;;5049725;28;20220;-41
2021/01/10 03:21:12;;;;;;;17.10;10.80;;;2.90;52.30;;;;;;5050125;28;20465;-40
2021/01/10 03:23:37;;;;;;;18.00;11.63;;;2.90;52.50;;;;;;5048426;28;20434;-41
2021/01/10 03:26:03;;;;;;;17.73;10.63;;;2.90;52.60;;;;;;5049987;28;20687;-40
2021/01/10 03:28:29;;;;;;;14.50;10.43;;;2.90;52.70;;;;;;5046604;28;20193;-41
2021/01/10 03:30:54;;;;;;;17.90;11.43;;;2.90;52.80;;;;;;5050802;28;20220;-40
2021/01/10 03:33:20;;;;;;;15.63;10.17;;;2.90;53.50;;;;;;5050472;28;20193;-40
2021/01/10 03:35:45;;;;;;;14.00;9.80;;;2.90;52.90;;;;;;5050377;28;20279;-40
2021/01/10 03:38:11;;;;;;;17.10;10.87;;;2.90;52.90;;;;;;5048793;28;20258;-40
2021/01/10 03:40:36;;;;;;;15.20;10.43;;;2.90;53.00;;;;;;5050545;28;20318;-40
2021/01/10 03:43:02;;;;;;;18.13;11.87;;;2.90;53.10;;;;;;5049486;28;20196;-41
2021/01/10 03:45:28;;;;;;;17.20;11.13;;;3.00;53.00;;;;;;5050293;28;20184;-40
2021/01/10 03:47:54;;;;;;;17.63;10.70;;;3.00;53.10;;;;;;5049757;28;20180;-41
2021/01/10 03:50:20;;;;;;;16.73;11.03;;;3.00;53.20;;;;;;5048843;28;20205;-41
2021/01/10 03:52:45;;;;;;;16.07;11.47;;;3.10;53.10;;;;;;5049151;28;20428;-41
2021/01/10 03:55:11;;;;;;;16.20;10.80;;;3.10;53.00;;;;;;5050611;28;20787;-40
2021/01/10 03:57:38;;;;;;;14.53;9.90;;;3.10;53.00;;;;;;5049340;28;20192;-41
2021/01/10 04:00:06;;;;;;;15.23;10.87;;;3.00;53.00;;;;;;5049195;28;20838;-41
2021/01/10 04:02:32;;;;;;;19.90;11.17;;;3.00;53.60;;;;;;5049734;28;20447;-41
2021/01/10 04:04:58;;;;;;;16.47;10.67;;;2.90;53.20;;;;;;5051848;28;20946;-40
2021/01/10 04:07:23;;;;;;;20.20;10.37;;;2.80;53.90;;;;;;5053289;28;20295;-40
2021/01/10 04:09:49;;;;;;;17.47;11.90;;;2.90;54.50;;;;;;5053082;28;20922;-41
2021/01/10 04:12:14;;;;;;;13.97;10.10;;;3.00;54.30;;;;;;5053419;28;20225;-40
2021/01/10 04:14:40;;;;;;;17.00;10.73;;;3.00;54.10;;;;;;5054092;28;20197;-41
2021/01/10 04:17:05;;;;;;;18.50;11.20;;;3.00;54.10;;;;;;5052648;28;20193;-41
2021/01/10 04:19:31;;;;;;;17.60;11.57;;;3.10;54.20;;;;;;5051788;28;20684;-40
2021/01/10 04:21:57;;;;;;;14.23;10.40;;;3.10;54.20;;;;;;5053424;28;20201;-41
2021/01/10 04:24:22;;;;;;;18.60;10.80;;;3.30;54.20;;;;;;5053195;28;20191;-40
2021/01/10 04:26:49;;;;;;;18.03;11.77;;;3.30;53.90;;;;;;5053303;28;20215;-40
2021/01/10 04:29:18;;;;;;;14.83;10.43;;;3.30;53.70;;;;;;5053417;28;20670;-40
2021/01/10 04:31:45;;;;;;;17.73;12.23;;;3.30;53.90;;;;;;5053444;28;21055;-41
2021/01/10 04:34:11;;;;;;;15.73;12.00;;;3.20;54.70;;;;;;5052827;28;20428;-40
2021/01/10 04:36:36;;;;;;;17.20;11.03;;;3.30;54.30;;;;;;5053239;28;20530;-40
2021/01/10 04:39:02;;;;;;;18.33;11.43;;;3.40;54.30;;;;;;5052290;28;20541;-40
2021/01/10 04:41:28;;;;;;;15.57;11.43;;;3.40;54.30;;;;;;5053733;28;20228;-41
2021/01/10 04:43:55;;;;;;;18.33;11.80;;;3.50;54.10;;;;;;5050976;28;20430;-40
2021/01/10 04:46:22;;;;;;;16.63;11.00;;;3.50;54.10;;;;;;5051968;28;20839;-40
2021/01/10 04:48:49;;;;;;;17.00;11.70;;;3.60;54.30;;;;;;5052684;28;20434;-40
2021/01/10 04:51:15;;;;;;;15.10;10.33;;;3.50;54.20;;;;;;5053067;28;20815;-40
2021/01/10 04:53:45;;;;;;;17.53;12.00;;;3.50;54.20;;;;;;5052550;28;20919;-40
2021/01/10 04:56:12;;;;;;;14.63;10.30;;;3.50;54.30;;;;;;5053275;28;20457;-41
2021/01/10 04:58:40;;;;;;;15.97;10.63;;;3.60;54.50;;;;;;5052123;28;20533;-40
2021/01/10 05:01:12;;;;;;;17.00;11.43;;;3.50;54.40;;;;;;5053381;28;20442;-40
2021/01/10 05:03:40;;;;;;;18.23;11.30;;;3.60;54.30;;;;;;5052014;28;20435;-41
2021/01/10 05:06:08;;;;;;;14.40;11.33;;;3.60;54.10;;;;;;5053040;28;20427;-41
2021/01/10 05:08:33;;;;;;;16.17;11.60;;;3.70;54.10;;;;;;5052031;28;20458;-40
2021/01/10 05:10:59;;;;;;;18.13;10.90;;;3.60;54.10;;;;;;5052500;28;20470;-40
2021/01/10 05:13:25;;;;;;;15.30;11.20;;;3.50;54.20;;;;;;5050800;28;20450;-41
2021/01/10 05:15:55;;;;;;;17.20;11.20;;;3.60;54.30;;;;;;5051799;28;20191;-39
2021/01/10 05:18:21;;;;;;;15.57;10.67;;;3.60;54.30;;;;;;5052263;28;20200;-40
2021/01/10 05:20:55;;;;;;;17.63;10.60;;;3.70;54.10;;;;;;5052542;28;20600;-40
2021/01/10 05:23:24;;;;;;;15.73;11.43;;;3.70;53.90;;;;;;5051907;28;20550;-41
2021/01/10 05:26:03;;;;;;;17.97;11.33;;;3.70;53.70;;;;;;5052329;28;20526;-41
2021/01/10 05:28:30;;;;;;;15.73;11.70;;;3.70;53.50;;;;;;5051467;28;20431;-41
2021/01/10 05:30:55;;;;;;;15.53;11.03;;;3.70;53.80;;;;;;5052193;28;20427;-40
2021/01/10 05:33:21;;;;;;;18.70;12.10;;;3.70;53.80;;;;;;5051961;28;20427;-41
2021/01/10 05:35:57;;;;;;;17.67;11.33;;;3.70;53.80;;;;;;5052893;28;20605;-41
2021/01/10 05:38:31;;;;;;;17.93;11.50;;;3.80;53.90;;;;;;5051225;28;20185;-41
2021/01/10 05:40:59;;;;;;;17.13;11.43;;;3.70;54.10;;;;;;5048078;28;20949;-40
2021/01/10 05:43:26;;;;;;;18.33;11.40;;;3.80;54.40;;;;;;5050179;28;20493;-40
2021/01/10 05:45:53;;;;;;;17.63;11.37;;;3.80;54.30;;;;;;5051766;28;20458;-40
2021/01/10 05:48:19;;;;;;;15.20;10.90;;;3.90;54.20;;;;;;5051507;28;20427;-40
2021/01/10 05:50:46;;;;;;;18.50;11.27;;;3.90;54.10;;;;;;5052278;28;21836;-40
2021/01/10 05:53:25;;;;;;;18.30;10.90;;;3.90;54.20;;;;;;5051429;28;20454;-40
2021/01/10 05:55:57;;;;;;;18.03;11.20;;;3.90;54.20;;;;;;5052595;28;20770;-40
2021/01/10 05:58:25;;;;;;;16.17;11.17;;;3.80;54.20;;;;;;5051446;28;20795;-40
2021/01/10 06:00:52;;;;;;;16.70;12.20;;;3.80;54.30;;;;;;5050598;28;20548;-40
2021/01/10 06:03:23;;;;;;;19.23;13.50;;;3.90;54.30;;;;;;5051420;28;20431;-40
2021/01/10 06:05:56;;;;;;;15.83;11.50;;;3.90;54.20;;;;;;5051148;28;20447;-40
2021/01/10 06:08:40;;;;;;;19.23;11.07;;;3.90;54.10;;;;;;5051064;28;20427;-41
2021/01/10 06:11:15;;;;;;;19.57;13.00;;;3.90;54.10;;;;;;5050168;28;20431;-41
2021/01/10 06:13:51;;;;;;;15.80;12.10;;;4.00;54.20;;;;;;5051323;28;20427;-41
2021/01/10 06:16:18;;;;;;;17.90;12.00;;;4.10;54.20;;;;;;5051677;28;20443;-40
2021/01/10 06:18:46;;;;;;;17.60;10.93;;;4.00;54.00;;;;;;5050313;28;20428;-41
2021/01/10 06:21:17;;;;;;;15.27;11.30;;;4.00;53.90;;;;;;5051370;28;20431;-41
2021/01/10 06:23:46;;;;;;;14.70;10.87;;;4.10;54.10;;;;;;5050988;28;20490;-41
2021/01/10 06:26:13;;;;;;;19.33;12.23;;;4.00;54.00;;;;;;5050890;28;20434;-41
2021/01/10 06:28:42;;;;;;;17.77;11.47;;;4.00;54.00;;;;;;5049784;28;20446;-40
2021/01/10 06:31:09;;;;;;;15.90;12.57;;;4.00;54.00;;;;;;5050741;28;20449;-41
2021/01/10 06:33:34;;;;;;;13.17;11.10;;;4.10;54.00;;;;;;5052158;28;20425;-41
2021/01/10 06:36:05;;;;;;;22.57;11.33;;;4.10;53.90;;;;;;5050527;28;20424;-41
2021/01/10 06:38:34;;;;;;;14.63;10.30;;;4.00;53.70;;;;;;5057199;28;20202;-41
2021/01/10 06:41:26;;;;;;;18.03;11.23;;;4.00;54.00;;;;;;5047576;28;20479;-41
2021/01/10 06:44:04;;;;;;;20.57;12.63;;;4.00;54.10;;;;;;5047637;28;20958;-40
2021/01/10 06:46:30;;;;;;;17.70;12.00;;;4.00;54.00;;;;;;5050887;28;20431;-41
2021/01/10 06:48:56;;;;;;;16.63;11.20;;;4.10;54.10;;;;;;5050264;28;20439;-41
2021/01/10 06:51:24;;;;;;;17.13;10.53;;;4.10;54.00;;;;;;5051832;28;20423;-41
2021/01/10 06:53:50;;;;;;;21.63;11.13;;;4.40;56.30;;;;;;5048644;28;20181;-41
2021/01/10 06:56:17;;;;;;;13.93;10.20;;;4.90;57.50;;;;;;5051256;28;20439;-41
2021/01/10 06:59:04;;;;;;;14.97;10.00;;;5.40;58.70;;;;;;5049959;28;20431;-41
2021/01/10 07:01:48;;;;;;;17.23;12.70;;;5.90;57.50;;;;;;5050959;28;20446;-41
2021/01/10 07:04:18;;;;;;;24.10;13.07;;;6.20;55.80;;;;;;5048590;28;20447;-41
2021/01/10 07:06:48;;;;;;;17.20;12.07;;;6.50;54.50;;;;;;5049253;28;20934;-41
2021/01/10 07:09:15;;;;;;;14.73;11.60;;;6.70;53.50;;;;;;5045924;28;20458;-41
2021/01/10 07:11:41;;;;;;;22.47;16.93;;;6.90;53.20;;;;;;5049541;28;20514;-41
2021/01/10 07:14:13;;;;;;;15.63;12.73;;;7.00;52.20;;;;;;5050069;28;20458;-41
2021/01/10 07:16:40;;;;;;;18.13;11.90;;;7.20;51.50;;;;;;5049557;28;20428;-41
2021/01/10 07:19:07;;;;;;;14.80;10.90;;;7.40;51.00;;;;;;5049405;28;20470;-41
2021/01/10 07:21:47;;;;;;;16.10;10.87;;;7.50;49.90;;;;;;5050654;28;20860;-41
2021/01/10 07:24:13;;;;;;;15.47;11.47;;;7.60;49.20;;;;;;5048994;28;20431;-41
2021/01/10 07:26:41;;;;;;;14.87;9.87;;;7.70;48.60;;;;;;5048845;28;20435;-41
2021/01/10 07:29:44;;;;;;;14.60;10.73;;;7.70;48.10;;;;;;5053758;28;20554;-41
2021/01/10 07:32:11;;;;;;;14.80;10.93;;;7.80;47.70;;;;;;5043740;28;20451;-41
2021/01/10 07:35:01;;;;;;;14.30;9.30;;;7.80;46.90;;;;;;5049340;28;20477;-41
2021/01/10 07:37:28;;;;;;;14.00;10.33;;;7.80;47.60;;;;;;5049221;28;20450;-41
2021/01/10 07:39:58;;;;;;;15.70;11.93;;;7.90;48.00;;;;;;5050983;28;22365;-41
2021/01/10 07:42:38;;;;;;;16.73;11.50;;;8.00;47.70;;;;;;5051284;28;20443;-41
2021/01/10 07:45:17;;;;;;;20.20;14.53;;;8.00;46.90;;;;;;5053909;28;20477;-41
2021/01/10 07:47:47;;;;;;;17.83;12.00;;;8.10;46.90;;;;;;5049615;28;20446;-41
2021/01/10 07:50:16;;;;;;;13.83;11.20;;;8.10;46.60;;;;;;5052604;28;20916;-41
2021/01/10 07:52:41;;;;;;;16.43;11.77;;;8.10;46.90;;;;;;5048877;28;20446;-39
2021/01/10 07:55:31;;;;;;;14.40;11.10;;;8.20;47.10;;;;;;5053751;28;20805;-39
2021/01/10 07:58:02;;;;;;;17.57;12.87;;;8.30;46.80;;;;;;5049921;28;20196;-39
2021/01/10 08:00:33;;;;;;;19.00;12.90;;;8.30;46.60;;;;;;5052417;28;20817;-39
2021/01/10 08:03:09;;;;;;;22.60;12.10;;;8.30;46.40;;;;;;5052799;28;20488;-40
2021/01/10 08:05:37;;;;;;;13.53;10.53;;;8.30;45.80;;;;;;5054430;28;20437;-41
2021/01/10 08:08:15;;;;;;;15.00;10.67;;;8.30;45.80;;;;;;5053062;28;20435;-41
2021/01/10 08:10:56;;;;;;;15.27;11.37;;;8.30;45.60;;;;;;5053516;28;20477;-41
2021/01/10 08:13:44;;;;;;;16.00;11.90;;;8.30;45.60;;;;;;5055599;28;20446;-40
2021/01/10 08:16:27;;;;;;;18.57;13.20;;;8.20;45.20;;;;;;5074425;28;20430;-40
2021/01/10 08:18:53;;;;;;;15.93;11.43;;;8.00;45.00;;;;;;5055402;28;20805;-39
2021/01/10 08:21:19;;;;;;;19.50;12.90;;;7.70;45.40;;;;;;5053842;28;20463;-41
2021/01/10 08:23:52;;;;;;;15.77;10.90;;;7.40;46.10;;;;;;5052146;28;20933;-40
2021/01/10 08:26:18;;;;;;;16.03;12.30;;;7.10;46.60;;;;;;5049122;28;20431;-40
2021/01/10 08:28:52;;;;;;;18.77;13.23;;;6.90;47.10;;;;;;5049354;28;21143;-40
2021/01/10 08:31:21;;;;;;;16.37;12.63;;;6.70;47.60;;;;;;5054135;28;20423;-40
2021/01/10 08:33:56;;;;;;;15.47;12.67;;;6.50;48.00;;;;;;5053513;28;20427;-40
2021/01/10 08:36:22;;;;;;;19.73;11.60;;;6.30;48.50;;;;;;5053704;28;20423;-41
2021/01/10 08:38:51;;;;;;;19.07;13.20;;;5.90;49.50;;;;;;5053046;28;20774;-41
2021/01/10 08:41:26;;;;;;;19.33;12.90;;;5.90;50.20;;;;;;5053481;28;20231;-40
2021/01/10 08:44:05;;;;;;;18.70;13.10;;;5.90;50.50;;;;;;5046439;28;20491;-41
2021/01/10 08:46:33;;;;;;;22.30;13.30;;;5.90;50.60;;;;;;5053422;28;20892;-41
2021/01/10 08:48:59;;;;;;;17.57;13.37;;;5.90;50.80;;;;;;5052824;28;20822;-41
2021/01/10 08:51:33;;;;;;;17.10;11.67;;;5.80;51.10;;;;;;5052323;28;20427;-40
2021/01/10 08:54:00;;;;;;;20.60;14.20;;;5.60;51.50;;;;;;5053210;28;20427;-41
2021/01/10 08:56:26;;;;;;;13.90;11.30;;;5.60;51.80;;;;;;5051384;28;20416;-40
2021/01/10 08:58:55;;;;;;;19.83;12.93;;;5.50;52.20;;;;;;5052943;28;20501;-41
2021/01/10 09:01:26;;;;;;;16.80;13.30;;;5.40;52.60;;;;;;5062507;28;20544;-41
2021/01/10 09:04:05;;;;;;;18.40;12.83;;;5.30;52.60;;;;;;5053134;28;20481;-41
2021/01/10 09:06:34;;;;;;;18.10;13.07;;;5.30;53.00;;;;;;5052872;28;20477;-41
2021/01/10 09:09:03;;;;;;;16.60;12.50;;;5.30;53.10;;;;;;5053018;28;20980;-41
2021/01/10 09:11:31;;;;;;;17.13;12.07;;;5.50;53.40;;;;;;5052583;28;20481;-40
2021/01/10 09:14:01;;;;;;;14.80;11.47;;;5.50;53.40;;;;;;5052853;28;20949;-40
2021/01/10 09:16:31;;;;;;;17.70;12.33;;;5.60;53.30;;;;;;5052754;28;20529;-41
2021/01/10 09:18:57;;;;;;;16.80;11.80;;;5.70;53.30;;;;;;5052279;28;20848;-40
2021/01/10 09:21:27;;;;;;;14.40;11.10;;;5.80;53.00;;;;;;5053961;28;20823;-41
2021/01/10 09:23:58;;;;;;;18.90;11.60;;;6.00;52.80;;;;;;5051645;28;20450;-41
2021/01/10 09:26:34;;;;;;;12.50;10.70;;;6.00;52.70;;;;;;5052637;28;20781;-40
2021/01/10 09:29:02;;;;;;;15.30;11.23;;;6.10;52.60;;;;;;5051941;28;20454;-41
2021/01/10 09:31:49;;;;;;;17.97;13.23;;;6.20;52.40;;;;;;5052166;28;20431;-41
2021/01/10 09:34:15;;;;;;;20.97;14.60;;;6.30;52.20;;;;;;5052268;28;20870;-41
2021/01/10 09:36:42;;;;;;;18.37;12.93;;;6.40;51.90;;;;;;5052318;28;20493;-41
2021/01/10 09:39:09;;;;;;;15.63;11.30;;;6.50;51.80;;;;;;5051970;28;20482;-41
2021/01/10 09:41:53;;;;;;;17.37;13.10;;;6.60;51.60;;;;;;5051745;28;20497;-41
2021/01/10 09:44:19;;;;;;;17.57;11.93;;;6.80;51.40;;;;;;5051489;28;20926;-41
2021/01/10 09:46:53;;;;;;;15.87;11.10;;;6.90;50.90;;;;;;5062461;28;20556;-41
2021/01/10 09:49:25;;;;;;;15.53;12.37;;;6.90;50.90;;;;;;5054400;28;20447;-41
2021/01/10 09:51:55;;;;;;;15.90;11.60;;;7.20;51.10;;;;;;5052221;28;20442;-41
2021/01/10 09:54:36;;;;;;;13.60;10.90;;;7.50;50.50;;;;;;5051465;28;20442;-41
2021/01/10 09:57:14;;;;;;;14.80;11.47;;;7.90;50.00;;;;;;5051448;28;20434;-41
2021/01/10 09:59:40;;;;;;;14.47;11.50;;;8.40;49.10;;;;;;5052079;28;20557;-41
2021/01/10 10:02:19;;;;;;;15.60;11.63;;;8.70;48.30;;;;;;5051286;28;20526;-41
2021/01/10 10:04:47;;;;;;;15.07;11.73;;;9.10;47.70;;;;;;5050669;28;20318;-39
2021/01/10 10:07:29;;;;;;;13.77;11.60;;;9.40;46.90;;;;;;5051480;28;21046;-39
2021/01/10 10:09:55;;;;;;;12.57;10.47;;;9.60;46.40;;;;;;5051870;28;20431;-39
2021/01/10 10:12:22;;;;;;;15.70;11.37;;;9.70;45.80;;;;;;5051787;28;20419;-39
2021/01/10 10:15:07;;;;;;;12.80;10.10;;;9.90;45.70;;;;;;5064622;28;20190;-40
2021/01/10 10:17:36;;;;;;;13.23;11.57;;;10.00;44.40;;;;;;5069626;28;20555;-39
2021/01/10 10:20:03;;;;;;;12.87;10.43;;;10.10;44.00;;;;;;5053708;28;20482;-39
2021/01/10 10:22:34;;;;;;;12.50;9.80;;;10.20;44.00;;;;;;5051091;28;20439;-39
2021/01/10 10:25:03;;;;;;;13.10;9.87;;;10.30;43.30;;;;;;5051312;28;20489;-39
2021/01/10 10:27:31;;;;;;;10.77;9.67;;;10.20;43.60;;;;;;5050910;28;20906;-39
2021/01/10 10:29:57;;;;;;;14.53;10.53;;;10.20;43.10;;;;;;5051247;28;20495;-39
2021/01/10 10:32:23;;;;;;;11.77;8.90;;;10.30;43.00;;;;;;5051475;28;20423;-39
2021/01/10 10:34:51;;;;;;;11.80;9.27;;;10.40;42.80;;;;;;5049819;28;20818;-39
2021/01/10 10:37:17;;;;;;;12.07;10.47;;;10.50;42.50;;;;;;5050309;28;20859;-39
2021/01/10 10:39:44;;;;;;;10.40;9.30;;;10.50;42.30;;;;;;5051384;28;20866;-39
2021/01/10 10:42:12;;;;;;;10.10;9.10;;;10.70;42.50;;;;;;5050569;28;20475;-39
2021/01/10 10:44:38;;;;;;;10.60;9.50;;;10.70;41.90;;;;;;5048488;28;20433;-40
2021/01/10 10:47:04;;;;;;;11.50;9.70;;;10.80;41.70;;;;;;5044399;28;20966;-40
2021/01/10 10:49:30;;;;;;;10.80;9.37;;;10.90;41.90;;;;;;5050276;28;20910;-40
2021/01/10 10:51:59;;;;;;;12.70;10.77;;;11.00;41.60;;;;;;5050033;28;20280;-40
2021/01/10 10:54:25;;;;;;;10.90;9.40;;;11.10;41.60;;;;;;5050377;28;20439;-40
2021/01/10 10:56:51;;;;;;;11.20;9.97;;;11.10;41.30;;;;;;5049136;28;20903;-40
2021/01/10 10:59:17;;;;;;;11.00;9.10;;;11.20;40.90;;;;;;5049036;28;20239;-40
2021/01/10 11:01:48;;;;;;;12.83;9.33;;;11.30;40.90;;;;;;5049927;28;20776;-40
2021/01/10 11:04:14;;;;;;;12.93;10.73;;;10.70;41.40;;;;;;5050099;28;20189;-40
2021/01/10 11:06:40;;;;;;;11.30;10.00;;;10.70;42.80;;;;;;5049702;28;20431;-40
2021/01/10 11:09:10;;;;;;;10.60;9.20;;;10.80;42.50;;;;;;5048553;28;21591;-40
2021/01/10 11:11:37;;;;;;;11.10;9.43;;;11.10;42.30;;;;;;5046729;28;20193;-40
2021/01/10 11:14:04;;;;;;;12.20;10.13;;;11.40;41.10;;;;;;5049211;28;20518;-40
2021/01/10 11:16:31;;;;;;;11.67;9.80;;;11.70;40.80;;;;;;5048989;28;20489;-40
2021/01/10 11:18:57;;;;;;;11.63;9.97;;;12.00;40.10;;;;;;5049815;28;20842;-40
2021/01/10 11:21:29;;;;;;;11.90;9.93;;;12.00;39.80;;;;;;5049992;28;20427;-40
2021/01/10 11:23:54;;;;;;;12.17;10.33;;;12.00;39.90;;;;;;5050445;28;20189;-40
2021/01/10 11:26:20;;;;;;;9.83;8.70;;;12.10;40.00;;;;;;5050236;28;20434;-40
2021/01/10 11:28:46;;;;;;;9.70;8.13;;;11.90;40.00;;;;;;5054154;28;20207;-40
2021/01/10 11:31:11;;;;;;;9.90;7.00;;;11.90;39.90;;;;;;5050528;28;20196;-40
2021/01/10 11:33:38;;;;;;;7.57;6.77;;;11.80;39.80;;;;;;5049918;28;20197;-40
2021/01/10 11:36:06;;;;;;;7.57;6.87;;;11.80;40.20;;;;;;5050642;28;20271;-41
2021/01/10 11:38:32;;;;;;;9.70;6.80;;;11.70;39.60;;;;;;5057883;28;20839;-40
2021/01/10 11:40:58;;;;;;;8.07;7.17;;;11.40;40.90;;;;;;5048320;28;20482;-40
2021/01/10 11:43:23;;;;;;;9.30;7.33;;;11.30;41.80;;;;;;5050124;28;20200;-40
2021/01/10 11:45:49;;;;;;;12.30;7.60;;;11.30;42.10;;;;;;5048698;28;20200;-40
2021/01/10 11:48:14;;;;;;;9.60;7.50;;;11.40;41.50;;;;;;5047226;28;20192;-40
2021/01/10 11:50:40;;;;;;;6.60;5.90;;;11.20;41.80;;;;;;5049589;28;20192;-40
2021/01/10 11:53:05;;;;;;;8.27;6.80;;;11.20;42.70;;;;;;5048935;28;20188;-40
2021/01/10 11:55:34;;;;;;;8.33;6.90;;;11.30;42.60;;;;;;5049464;28;20197;-40
2021/01/10 11:58:00;;;;;;;12.17;8.00;;;11.40;42.10;;;;;;5048184;28;20823;-40
2021/01/10 12:00:26;;;;;;;7.13;6.23;;;11.40;41.00;;;;;;5049667;28;20478;-40
2021/01/10 12:02:51;;;;;;;8.07;7.27;;;11.40;41.10;;;;;;5049529;28;20197;-40
2021/01/10 12:05:17;;;;;;;7.67;6.83;;;11.50;41.40;;;;;;5048632;28;20528;-40
2021/01/10 12:07:42;;;;;;;6.67;5.97;;;11.50;41.40;;;;;;5045702;28;20238;-40
2021/01/10 12:10:08;;;;;;;8.13;6.23;;;11.40;41.40;;;;;;5047214;28;20216;-40
2021/01/10 12:12:34;;;;;;;6.23;5.47;;;11.40;40.90;;;;;;5048551;28;20188;-41
2021/01/10 12:15:00;;;;;;;6.20;5.30;;;11.20;40.60;;;;;;5049230;28;20431;-40
2021/01/10 12:17:25;;;;;;;6.60;5.57;;;11.10;40.40;;;;;;5048960;28;20714;-40
2021/01/10 12:19:51;;;;;;;6.87;5.50;;;11.10;40.40;;;;;;5050024;28;20216;-40
2021/01/10 12:22:16;;;;;;;6.10;5.50;;;10.80;40.40;;;;;;5049269;28;20235;-40
2021/01/10 12:24:42;;;;;;;6.50;5.30;;;10.60;41.20;;;;;;5050505;28;20512;-40
2021/01/10 12:27:07;;;;;;;6.90;5.70;;;10.50;42.00;;;;;;5052692;28;20198;-40
2021/01/10 12:29:33;;;;;;;5.70;4.90;;;10.40;41.70;;;;;;5053707;28;20238;-40
2021/01/10 12:31:59;;;;;;;6.17;5.23;;;10.50;42.10;;;;;;5052790;28;20238;-40
2021/01/10 12:34:24;;;;;;;6.33;5.70;;;10.50;42.10;;;;;;5051760;28;20212;-40
2021/01/10 12:36:50;;;;;;;9.03;6.60;;;10.60;42.30;;;;;;5053340;28;20570;-40
2021/01/10 12:39:15;;;;;;;8.00;6.57;;;10.60;42.80;;;;;;5052229;28;20703;-40
2021/01/10 12:41:42;;;;;;;7.07;5.83;;;10.60;42.90;;;;;;5052760;28;20248;-40
2021/01/10 12:44:08;;;;;;;5.87;5.23;;;10.50;42.30;;;;;;5053175;28;20192;-40
2021/01/10 12:46:33;;;;;;;5.77;5.20;;;10.30;42.50;;;;;;5052537;28;20505;-40